Time;durP1;ratioP1;P1;durP2;ratioP2;P2;SDS_P1;SDS_P2;PMS_P1;PMS_P2;Temp;Humidity;BMP_temperature;BMP_pressure;BME280_temperature;BME280_humidity;BME280_pressure;Samples;Min_cycle;Max_cycle;Signal;HPM_P1;HPM_P2
2022/06/15 00:01:06;;;;;;;2.92;1.45;;;;;;;19.52;61.45;100684.03;1744995;82;20932;-86
2022/06/15 00:03:36;;;;;;;1.12;0.95;;;;;;;19.48;61.37;100673.34;1709128;84;20848;-87
2022/06/15 00:06:16;;;;;;;1.45;1.15;;;;;;;19.43;61.27;100680.90;1745068;82;21752;-87
2022/06/15 00:08:45;;;;;;;4.90;1.00;;;;;;;19.37;61.49;100668.22;1745114;81;20924;-86
2022/06/15 00:11:20;;;;;;;2.70;1.30;;;;;;;19.29;61.99;100663.63;1709237;84;20944;-87
2022/06/15 00:13:48;;;;;;;2.10;1.10;;;;;;;19.20;62.91;100659.19;1744846;81;20932;-87
2022/06/15 00:16:16;;;;;;;1.77;0.90;;;;;;;19.10;63.68;100676.53;1709143;84;20841;-87
2022/06/15 00:18:45;;;;;;;5.58;1.20;;;;;;;19.01;64.37;100686.70;1708930;84;21091;-87
2022/06/15 00:21:13;;;;;;;4.55;1.12;;;;;;;18.93;64.99;100696.72;1744585;82;20909;-87
2022/06/15 00:23:40;;;;;;;2.83;1.35;;;;;;;18.89;65.86;100694.49;1708895;84;21000;-88
2022/06/15 00:26:07;;;;;;;1.62;1.02;;;;;;;18.84;66.27;100702.90;1744767;82;20889;-87
2022/06/15 00:28:34;;;;;;;2.42;1.40;;;;;;;18.77;66.70;100711.08;1708952;84;20888;-87
2022/06/15 00:31:01;;;;;;;3.25;0.90;;;;;;;18.71;67.29;100722.27;1744700;81;21132;-87
2022/06/15 00:33:29;;;;;;;1.40;1.07;;;;;;;18.66;68.02;100736.47;1708804;82;21505;-87
2022/06/15 00:35:58;;;;;;;1.15;1.00;;;;;;;18.61;68.82;100752.34;1708957;82;20885;-87
2022/06/15 00:38:35;;;;;;;4.28;1.52;;;;;;;18.56;69.20;100755.89;1744671;81;20909;-87
2022/06/15 00:41:03;;;;;;;8.85;2.00;;;;;;;18.53;69.74;100763.31;1709085;84;20963;-86
2022/06/15 00:43:43;;;;;;;2.65;1.22;;;;;;;18.46;69.68;100760.38;1744907;81;21140;-86
2022/06/15 00:46:24;;;;;;;4.70;1.45;;;;;;;18.36;69.78;100766.16;1709036;84;20924;-86
2022/06/15 00:49:00;;;;;;;2.35;1.60;;;;;;;18.23;70.07;100759.33;1708978;82;20935;-85
2022/06/15 00:51:26;;;;;;;1.45;1.20;;;;;;;18.15;70.69;100757.00;1744771;81;20925;-84
2022/06/15 00:53:53;;;;;;;1.65;1.15;;;;;;;18.04;71.21;100742.53;1709154;84;20877;-85
2022/06/15 00:56:22;;;;;;;1.65;1.30;;;;;;;17.94;71.76;100720.81;1734500;82;20964;-85
2022/06/15 00:58:52;;;;;;;2.90;1.87;;;;;;;17.89;72.50;100712.41;1744685;80;20952;-85
2022/06/15 01:01:18;;;;;;;5.08;1.25;;;;;;;17.84;72.93;100704.52;1745045;81;20963;-86
2022/06/15 01:03:46;;;;;;;3.30;1.17;;;;;;;17.81;73.35;100697.19;1744735;81;20869;-86
2022/06/15 01:06:51;;;;;;;3.02;1.30;;;;;;;17.80;73.40;100694.63;1708964;84;20892;-86
2022/06/15 01:09:27;;;;;;;1.27;1.20;;;;;;;17.74;73.56;100696.02;1744864;80;21110;-87
2022/06/15 01:12:36;;;;;;;6.12;1.25;;;;;;;17.66;73.80;100687.07;1709281;84;20892;-84
2022/06/15 01:15:26;;;;;;;3.40;1.52;;;;;;;17.61;73.93;100686.98;1708905;84;20908;-85
2022/06/15 01:18:04;;;;;;;1.42;1.15;;;;;;;17.58;74.14;100690.38;1744788;81;20897;-85
2022/06/15 01:20:47;;;;;;;3.17;1.75;;;;;;;17.53;74.31;100693.45;1694887;84;21010;-85
2022/06/15 01:23:28;;;;;;;2.12;1.37;;;;;;;17.50;74.62;100700.36;1709058;84;21800;-84
2022/06/15 01:26:30;;;;;;;1.67;1.50;;;;;;;17.49;74.97;100701.81;1744523;81;21532;-86
2022/06/15 01:29:30;;;;;;;5.30;1.62;;;;;;;17.48;75.26;100706.77;1709204;84;21516;-85
2022/06/15 01:32:05;;;;;;;1.67;1.27;;;;;;;17.47;75.64;100707.73;1744581;81;20932;-86
2022/06/15 01:34:43;;;;;;;3.35;1.40;;;;;;;17.44;76.35;100703.54;1709067;84;20939;-86
2022/06/15 01:37:21;;;;;;;3.90;1.62;;;;;;;17.43;76.99;100711.16;1744755;82;21228;-85
2022/06/15 01:39:57;;;;;;;1.60;1.50;;;;;;;17.42;77.42;100713.94;1709029;84;20877;-85
2022/06/15 01:42:29;;;;;;;2.35;1.50;;;;;;;17.42;77.73;100718.74;1708894;84;20892;-85
2022/06/15 01:45:06;;;;;;;3.42;1.57;;;;;;;17.42;77.84;100717.41;1744705;81;20936;-86
2022/06/15 01:47:33;;;;;;;1.50;1.37;;;;;;;17.43;77.83;100723.09;1744662;81;20889;-86
2022/06/15 01:50:11;;;;;;;2.17;1.67;;;;;;;17.45;78.18;100724.26;1708985;82;20896;-86
2022/06/15 01:52:59;;;;;;;2.25;1.47;;;;;;;17.45;78.43;100721.61;1744686;82;20982;-86
2022/06/15 01:55:51;;;;;;;1.75;1.60;;;;;;;17.44;78.20;100721.27;1709267;84;21034;-86
2022/06/15 01:58:19;;;;;;;2.92;1.67;;;;;;;17.45;78.57;100729.06;1744867;80;21462;-87
2022/06/15 02:01:03;;;;;;;4.08;2.55;;;;;;;17.46;78.55;100724.63;1709157;83;20912;-87
2022/06/15 02:03:54;;;;;;;2.02;1.87;;;;;;;17.43;78.52;100728.85;1734002;82;21846;-86
2022/06/15 02:06:47;;;;;;;2.02;1.47;;;;;;;17.38;78.77;100725.28;1694286;82;20939;-86
2022/06/15 02:09:50;;;;;;;2.15;1.80;;;;;;;17.34;79.17;100724.73;1745448;81;20916;-85
2022/06/15 02:12:22;;;;;;;2.67;1.62;;;;;;;17.34;79.47;100730.03;1708905;82;20888;-86
2022/06/15 02:14:54;;;;;;;4.70;1.95;;;;;;;17.35;79.62;100728.20;1745070;81;20896;-86
2022/06/15 02:17:38;;;;;;;5.37;1.37;;;;;;;17.36;79.48;100731.20;1709167;82;21179;-87
2022/06/15 02:20:11;;;;;;;4.85;1.47;;;;;;;17.36;79.56;100728.08;1744877;81;21387;-87
2022/06/15 02:22:40;;;;;;;1.92;1.67;;;;;;;17.36;79.48;100733.39;1711729;81;20901;-86
2022/06/15 02:25:14;;;;;;;3.95;1.75;;;;;;;17.36;79.28;100735.17;1747377;79;20941;-86
2022/06/15 02:27:42;;;;;;;1.75;1.65;;;;;;;17.33;79.37;100730.16;1747720;80;20905;-85
2022/06/15 02:30:16;;;;;;;2.37;1.75;;;;;;;17.29;79.57;100729.56;1737040;79;21097;-86
2022/06/15 02:32:45;;;;;;;2.40;1.60;;;;;;;17.25;79.81;100729.97;1692174;83;20869;-86
2022/06/15 02:35:13;;;;;;;2.58;1.57;;;;;;;17.20;79.83;100734.34;1747387;79;20928;-85
2022/06/15 02:37:41;;;;;;;2.00;1.90;;;;;;;17.17;80.01;100735.94;1712017;81;20929;-85
2022/06/15 02:40:16;;;;;;;7.30;2.20;;;;;;;17.18;80.39;100729.16;1690060;84;20979;-87
2022/06/15 02:42:44;;;;;;;6.78;2.15;;;;;;;17.20;80.33;100736.98;1747282;82;21105;-86
2022/06/15 02:45:28;;;;;;;3.37;1.52;;;;;;;17.19;80.23;100736.16;1747141;81;20882;-85
2022/06/15 02:47:55;;;;;;;2.50;1.67;;;;;;;17.19;80.21;100736.66;1710656;83;20888;-86
2022/06/15 02:50:26;;;;;;;1.98;1.37;;;;;;;17.21;80.23;100737.36;1745793;82;20849;-86
2022/06/15 02:53:04;;;;;;;5.25;1.80;;;;;;;17.23;80.01;100731.91;1712431;82;20884;-85
2022/06/15 02:55:31;;;;;;;1.40;1.30;;;;;;;17.24;80.13;100730.45;1735684;82;21154;-86
2022/06/15 02:58:15;;;;;;;1.90;1.77;;;;;;;17.30;80.31;100737.89;1755120;81;20968;-86
2022/06/15 03:00:43;;;;;;;1.52;1.40;;;;;;;17.35;80.23;100736.99;1757455;81;20880;-86
2022/06/15 03:03:11;;;;;;;1.50;1.40;;;;;;;17.42;80.48;100734.65;1722368;83;20896;-87
2022/06/15 03:05:38;;;;;;;1.52;1.30;;;;;;;17.50;80.61;100735.32;1723046;82;21178;-84
2022/06/15 03:08:06;;;;;;;1.80;1.40;;;;;;;17.56;80.59;100735.63;1722768;83;21256;-82
2022/06/15 03:10:34;;;;;;;1.30;1.20;;;;;;;17.63;80.55;100736.39;1695821;83;20865;-85
2022/06/15 03:13:03;;;;;;;1.87;1.42;;;;;;;17.69;80.40;100745.97;1722015;83;20932;-87
2022/06/15 03:15:30;;;;;;;2.80;1.80;;;;;;;17.76;80.16;100745.80;1695670;83;20975;-86
2022/06/15 03:17:57;;;;;;;1.47;1.20;;;;;;;17.83;79.91;100746.59;1722229;82;20891;-87
2022/06/15 03:20:25;;;;;;;2.50;1.65;;;;;;;17.87;79.27;100740.88;1722188;83;21073;-87
2022/06/15 03:22:54;;;;;;;2.92;1.80;;;;;;;17.93;78.66;100748.80;1722453;83;20888;-87
2022/06/15 03:25:22;;;;;;;2.87;1.80;;;;;;;17.97;78.49;100741.75;1722172;83;20986;-86
2022/06/15 03:27:49;;;;;;;2.37;1.52;;;;;;;18.03;77.92;100745.69;1722455;83;21049;-87
2022/06/15 03:30:16;;;;;;;1.98;1.85;;;;;;;18.04;77.51;100747.34;1722079;83;21368;-87
2022/06/15 03:32:48;;;;;;;3.00;1.70;;;;;;;18.09;77.21;100755.73;1721668;83;21092;-87
2022/06/15 03:35:17;;;;;;;3.50;1.62;;;;;;;18.14;76.91;100755.31;1722170;83;20900;-87
2022/06/15 03:37:45;;;;;;;2.08;1.87;;;;;;;18.19;76.96;100757.92;1722224;83;20927;-86
2022/06/15 03:40:16;;;;;;;2.00;1.85;;;;;;;18.25;76.98;100761.82;1717516;83;20947;-86
2022/06/15 03:42:46;;;;;;;2.22;1.92;;;;;;;18.30;76.43;100763.59;1722298;82;21460;-86
2022/06/15 03:45:12;;;;;;;2.02;1.80;;;;;;;18.33;76.24;100761.97;1722068;83;21117;-86
2022/06/15 03:47:39;;;;;;;2.50;2.15;;;;;;;18.39;76.52;100768.56;1722646;83;21414;-87
2022/06/15 03:50:08;;;;;;;6.97;2.12;;;;;;;18.43;76.17;100765.95;1722274;83;20920;-87
2022/06/15 03:52:35;;;;;;;1.75;1.65;;;;;;;18.48;75.73;100769.55;1722347;82;20923;-86
2022/06/15 03:55:02;;;;;;;5.45;2.20;;;;;;;18.50;75.51;100763.58;1723091;82;20987;-87
2022/06/15 03:57:29;;;;;;;2.15;1.98;;;;;;;18.53;75.08;100768.63;1719767;83;21895;-87
2022/06/15 03:59:57;;;;;;;1.92;1.82;;;;;;;18.58;74.89;100773.84;1717140;83;20904;-88
2022/06/15 04:02:42;;;;;;;2.37;2.22;;;;;;;18.62;75.08;100777.08;1716970;83;20976;-86
2022/06/15 04:05:18;;;;;;;1.72;1.57;;;;;;;18.67;74.93;100779.31;1716455;83;21429;-88
2022/06/15 04:10:33;;;;;;;2.65;1.77;;;;;;;18.74;73.28;100777.30;1716866;83;21143;-86
2022/06/15 04:13:02;;;;;;;2.75;1.77;;;;;;;18.90;72.03;100785.19;1753184;81;20976;-88
2022/06/15 04:15:30;;;;;;;2.25;1.40;;;;;;;19.22;71.14;100793.66;1752923;80;20900;-89
2022/06/15 04:17:57;;;;;;;3.20;1.80;;;;;;;19.65;69.27;100789.61;1753064;82;20865;-87
2022/06/15 04:20:40;;;;;;;2.45;2.02;;;;;;;20.13;67.81;100791.67;1752290;80;21012;-88
2022/06/15 04:23:15;;;;;;;1.98;1.60;;;;;;;20.60;65.86;100796.00;1748610;81;21118;-88
2022/06/15 04:25:54;;;;;;;1.92;1.75;;;;;;;20.96;63.99;100798.11;1716798;83;21503;-86
2022/06/15 04:28:23;;;;;;;5.20;2.05;;;;;;;21.32;63.16;100802.87;1716931;83;20919;-87
2022/06/15 04:30:50;;;;;;;2.85;1.75;;;;;;;21.75;61.70;100811.47;1753162;81;20896;-88
2022/06/15 04:33:19;;;;;;;1.60;1.50;;;;;;;22.18;62.01;100806.93;1717159;83;20965;-87
2022/06/15 04:35:45;;;;;;;2.33;1.82;;;;;;;22.59;60.53;100816.37;1754055;81;21200;-87
2022/06/15 04:38:14;;;;;;;2.30;2.00;;;;;;;22.90;59.69;100812.53;1753497;81;21023;-86
2022/06/15 04:40:42;;;;;;;1.75;1.52;;;;;;;23.27;58.22;100808.52;1752053;81;20960;-88
2022/06/15 04:43:10;;;;;;;2.10;1.30;;;;;;;23.56;56.20;100808.76;1733796;82;20936;-88
2022/06/15 04:45:37;;;;;;;2.22;1.90;;;;;;;23.88;55.71;100812.38;1753261;82;20826;-88
2022/06/15 04:48:14;;;;;;;4.33;1.80;;;;;;;24.23;55.39;100816.03;1753368;82;21202;-87
2022/06/15 04:50:39;;;;;;;4.90;2.10;;;;;;;24.52;53.34;100813.54;1716600;82;21555;-85
2022/06/15 04:53:07;;;;;;;1.72;1.62;;;;;;;24.76;51.71;100811.15;1753144;80;20900;-87
2022/06/15 04:55:34;;;;;;;2.35;1.35;;;;;;;24.89;51.27;100815.08;1733542;82;20900;-88
2022/06/15 04:58:04;;;;;;;2.02;1.30;;;;;;;25.02;51.27;100820.67;1748931;82;20968;-85
2022/06/15 05:00:35;;;;;;;2.02;1.07;;;;;;;25.20;49.95;100822.53;1708979;84;21148;-86
2022/06/15 05:03:04;;;;;;;2.37;1.00;;;;;;;25.38;48.56;100817.31;1709484;84;21479;-86
2022/06/15 05:05:30;;;;;;;1.87;1.35;;;;;;;25.55;48.09;100818.81;1687446;84;20948;-89
2022/06/15 05:07:57;;;;;;;1.55;1.45;;;;;;;25.81;47.26;100820.16;1709350;84;20939;-88
2022/06/15 05:10:25;;;;;;;1.98;1.35;;;;;;;26.01;46.33;100823.98;1744808;80;20932;-89
2022/06/15 05:12:53;;;;;;;2.27;1.22;;;;;;;26.21;45.73;100822.02;1745145;81;21208;-89
2022/06/15 05:15:21;;;;;;;1.32;1.02;;;;;;;26.32;45.39;100824.20;1744839;81;20921;-90
2022/06/15 05:17:50;;;;;;;2.45;1.35;;;;;;;26.49;45.39;100828.02;1744955;80;20837;-89
2022/06/15 05:20:19;;;;;;;1.32;1.00;;;;;;;26.63;44.72;100825.27;1708989;82;20959;-89
2022/06/15 05:22:52;;;;;;;2.87;0.95;;;;;;;26.77;43.95;100826.73;1745189;82;20857;-88
2022/06/15 05:25:20;;;;;;;2.70;1.30;;;;;;;26.83;43.18;100825.45;1744892;80;21087;-89
2022/06/15 05:27:48;;;;;;;1.52;1.32;;;;;;;26.88;42.36;100824.38;1744721;81;20912;-89
2022/06/15 05:30:16;;;;;;;1.20;1.07;;;;;;;26.97;42.72;100824.22;1708974;83;21057;-86
2022/06/15 05:32:44;;;;;;;2.12;1.10;;;;;;;27.15;42.64;100822.41;1745465;81;20916;-88
2022/06/15 05:35:11;;;;;;;1.40;1.10;;;;;;;27.18;41.70;100822.83;1709098;84;21425;-87
2022/06/15 05:37:39;;;;;;;1.40;1.30;;;;;;;27.12;41.63;100827.64;1708977;84;20833;-86
2022/06/15 05:40:07;;;;;;;2.98;1.00;;;;;;;27.17;41.54;100820.33;1744947;82;21436;-88
2022/06/15 05:42:35;;;;;;;1.92;0.85;;;;;;;27.35;41.97;100833.35;1734492;82;21343;-90
2022/06/15 05:45:05;;;;;;;0.57;0.57;;;;;;;27.63;41.24;100828.73;1744682;80;20893;-88
2022/06/15 05:47:32;;;;;;;1.27;1.17;;;;;;;27.82;40.29;100829.05;1709446;84;20944;-88
2022/06/15 05:50:05;;;;;;;0.95;0.75;;;;;;;28.04;40.55;100827.09;1745281;81;21191;-88
2022/06/15 05:52:34;;;;;;;2.00;0.80;;;;;;;28.26;38.85;100826.44;1744669;81;20924;-88
2022/06/15 05:55:02;;;;;;;3.22;0.60;;;;;;;28.41;38.10;100828.41;1709326;82;20932;-90
2022/06/15 05:57:28;;;;;;;2.58;1.27;;;;;;;28.50;37.54;100830.44;1709247;83;21023;-90
2022/06/15 05:59:57;;;;;;;1.67;1.00;;;;;;;28.65;37.41;100822.98;1745460;81;20877;-87
2022/06/15 06:02:26;;;;;;;1.50;0.80;;;;;;;28.70;36.77;100831.81;1709486;84;21191;-89
2022/06/15 06:04:52;;;;;;;2.98;1.12;;;;;;;28.68;36.63;100831.19;1745372;81;20995;-89
2022/06/15 06:07:20;;;;;;;1.75;1.10;;;;;;;28.63;36.59;100825.58;1745222;81;21003;-89
2022/06/15 06:09:46;;;;;;;1.70;1.10;;;;;;;28.61;36.32;100827.66;1745242;81;20988;-89
2022/06/15 06:12:14;;;;;;;5.80;1.70;;;;;;;28.51;36.62;100827.55;1745418;81;20877;-89
2022/06/15 06:14:42;;;;;;;1.35;1.10;;;;;;;28.58;37.63;100831.59;1745751;81;21403;-86
2022/06/15 06:17:12;;;;;;;3.40;1.12;;;;;;;28.80;36.50;100832.24;1745372;81;21002;-89
2022/06/15 06:19:39;;;;;;;0.70;0.70;;;;;;;29.05;35.59;100832.97;1745682;81;20964;-89
2022/06/15 06:22:06;;;;;;;1.98;0.80;;;;;;;29.20;34.89;100833.61;1746183;82;20940;-87
2022/06/15 06:24:32;;;;;;;7.55;6.67;;;;;;;29.38;34.14;100838.89;1745841;81;20945;-88
2022/06/15 06:27:03;;;;;;;67.45;60.65;;;;;;;29.61;33.56;100846.51;1710208;82;20971;-85
2022/06/15 06:29:30;;;;;;;3.40;3.10;;;;;;;29.79;33.18;100845.86;1745606;81;21066;-88
2022/06/15 06:32:00;;;;;;;35.30;31.62;;;;;;;29.77;33.23;100848.80;1710068;83;20888;-88
2022/06/15 06:34:30;;;;;;;9.33;4.58;;;;;;;29.97;33.65;100844.66;1746305;81;20925;-88
2022/06/15 06:36:56;;;;;;;15.13;11.15;;;;;;;30.40;33.01;100851.34;1745839;81;20920;-88
2022/06/15 06:39:28;;;;;;;25.48;22.98;;;;;;;30.75;32.13;100859.85;1746092;81;22007;-89
2022/06/15 06:41:57;;;;;;;;;;;;;;;30.95;31.36;100863.26;1748342;80;20924;-89
2022/06/15 06:44:23;;;;;;;5.58;4.75;;;;;;;31.01;30.89;100864.77;1745497;81;20097;-90
2022/06/15 06:46:51;;;;;;;6.40;5.05;;;;;;;31.05;31.36;100867.34;1709794;84;20976;-90
2022/06/15 06:49:18;;;;;;;1.32;1.20;;;;;;;31.07;30.36;100866.06;1709650;84;21011;-89
2022/06/15 06:51:44;;;;;;;4.53;2.83;;;;;;;30.76;30.62;100876.39;1745665;81;21174;-88
2022/06/15 06:54:13;;;;;;;5.37;2.58;;;;;;;30.38;30.22;100874.55;1709627;83;20995;-88
2022/06/15 06:56:42;;;;;;;3.05;2.77;;;;;;;30.03;30.27;100866.77;1745602;81;20960;-89
2022/06/15 06:59:11;;;;;;;4.28;2.67;;;;;;;29.74;30.72;100869.48;1754854;81;20896;-88
2022/06/15 07:01:40;;;;;;;4.97;2.85;;;;;;;29.90;31.10;100860.06;1722525;83;20963;-88
2022/06/15 07:04:09;;;;;;;7.97;3.40;;;;;;;29.96;30.03;100864.09;1722897;83;21174;-89
2022/06/15 07:06:36;;;;;;;2.12;1.32;;;;;;;29.82;30.54;100862.50;1723097;83;20912;-90
2022/06/15 07:09:03;;;;;;;2.98;1.50;;;;;;;29.71;31.04;100868.04;1723362;83;20916;-89
2022/06/15 07:11:32;;;;;;;2.15;0.90;;;;;;;29.44;30.17;100857.78;1723099;83;20916;-92
2022/06/15 07:14:00;;;;;;;2.10;1.27;;;;;;;29.13;30.62;100859.27;1723035;82;20990;-89
2022/06/15 07:16:27;;;;;;;4.15;0.90;;;;;;;29.09;31.53;100863.95;1723581;83;21178;-89
2022/06/15 07:18:55;;;;;;;4.62;2.45;;;;;;;29.27;31.46;100860.09;1723242;83;20896;-90
2022/06/15 07:21:26;;;;;;;7.20;2.30;;;;;;;29.50;30.29;100855.59;1722980;82;20857;-90
2022/06/15 07:23:55;;;;;;;5.40;3.55;;;;;;;29.78;30.08;100859.91;1722912;82;20955;-89
2022/06/15 07:26:29;;;;;;;2.70;1.15;;;;;;;30.10;29.80;100864.89;1723346;83;20975;-89
2022/06/15 07:28:57;;;;;;;4.42;1.77;;;;;;;30.07;28.93;100865.30;1723002;82;21210;-90
2022/06/15 07:31:30;;;;;;;1.77;1.50;;;;;;;29.92;28.83;100864.73;1723295;83;21331;-87
2022/06/15 07:33:57;;;;;;;3.83;1.80;;;;;;;29.85;29.04;100868.00;1723750;83;20884;-88
2022/06/15 07:36:24;;;;;;;4.42;2.37;;;;;;;29.64;29.22;100871.25;1723394;82;20895;-90
2022/06/15 07:38:53;;;;;;;3.37;2.77;;;;;;;29.75;29.11;100869.81;1722760;82;20939;-87
2022/06/15 07:41:24;;;;;;;5.37;2.58;;;;;;;29.88;28.75;100865.70;1722972;83;21232;-87
2022/06/15 07:43:51;;;;;;;8.55;7.70;;;;;;;30.08;28.04;100858.86;1722646;82;20943;-89
2022/06/15 07:46:18;;;;;;;7.42;6.12;;;;;;;30.29;28.46;100864.50;1723022;83;21370;-88
2022/06/15 07:51:38;;;;;;;5.62;5.00;;;;;;;30.83;27.36;100856.03;1621909;88;20965;-88
2022/06/15 07:54:09;;;;;;;2.47;1.87;;;;;;;31.12;27.01;100855.91;1649679;85;20962;-89
2022/06/15 07:56:37;;;;;;;1.65;1.17;;;;;;;31.38;26.94;100852.12;1630706;86;20930;-87
2022/06/15 07:59:03;;;;;;;1.42;1.25;;;;;;;31.64;26.23;100855.13;1617351;88;20906;-88
2022/06/15 08:01:30;;;;;;;1.95;1.17;;;;;;;31.84;25.77;100854.03;1579037;89;21051;-89
2022/06/15 08:03:59;;;;;;;2.37;1.55;;;;;;;32.00;25.93;100857.53;1607828;88;20962;-91
2022/06/15 08:06:27;;;;;;;3.20;1.10;;;;;;;32.07;25.41;100854.73;1579663;89;21271;-87
2022/06/15 08:08:54;;;;;;;3.20;0.93;;;;;;;32.16;25.69;100851.46;1607330;88;20998;-88
2022/06/15 08:11:22;;;;;;;3.72;0.98;;;;;;;32.18;25.90;100844.45;1579024;89;21090;-90
2022/06/15 08:13:50;;;;;;;2.30;0.60;;;;;;;32.12;25.87;100846.73;1607064;88;20986;-90
2022/06/15 08:16:17;;;;;;;1.72;0.90;;;;;;;32.04;26.00;100846.53;1579017;89;21434;-87
2022/06/15 08:18:50;;;;;;;3.02;1.00;;;;;;;32.04;25.33;100852.46;1607542;89;21038;-92
2022/06/15 08:21:24;;;;;;;2.67;0.60;;;;;;;32.13;25.49;100858.72;1579341;91;20943;-88
2022/06/15 08:23:52;;;;;;;4.65;0.88;;;;;;;32.32;25.80;100853.23;1719012;83;20971;-89
2022/06/15 08:26:27;;;;;;;2.65;0.55;;;;;;;32.53;24.37;100847.33;1719304;83;20947;-89
2022/06/15 08:29:02;;;;;;;1.85;0.80;;;;;;;32.65;24.50;100847.34;1720114;80;20888;-87
2022/06/15 08:34:42;;;;;;;4.97;0.82;;;;;;;32.93;24.12;100858.06;1723124;80;20868;-89
2022/06/15 08:37:16;;;;;;;4.40;0.82;;;;;;;32.87;23.49;100854.41;1702586;83;21415;-89
2022/06/15 08:39:47;;;;;;;12.33;0.78;;;;;;;32.74;23.35;100852.73;1724400;82;20975;-89
2022/06/15 08:42:42;;;;;;;1.85;0.72;;;;;;;32.62;23.62;100848.64;1724341;82;20971;-89
2022/06/15 08:45:29;;;;;;;4.25;0.80;;;;;;;32.66;23.63;100849.52;1724017;83;21178;-88
2022/06/15 08:48:31;;;;;;;2.10;0.70;;;;;;;32.57;24.05;100851.74;1723669;82;21438;-90
2022/06/15 08:51:36;;;;;;;1.75;0.70;;;;;;;32.72;24.93;100857.56;1724654;83;21018;-88
2022/06/15 08:54:09;;;;;;;1.37;0.62;;;;;;;32.99;24.14;100851.16;1724468;83;21007;-89
2022/06/15 08:56:43;;;;;;;2.12;0.98;;;;;;;33.12;23.99;100850.67;1724983;82;20980;-89
2022/06/15 08:59:23;;;;;;;1.50;0.62;;;;;;;33.34;24.71;100844.93;1724532;82;21257;-91
2022/06/15 09:02:33;;;;;;;8.05;1.02;;;;;;;33.62;23.39;100844.77;1704440;82;20885;-90
2022/06/15 09:05:44;;;;;;;0.40;0.40;;;;;;;33.66;22.17;100845.91;1725098;82;20921;-88
2022/06/15 09:08:59;;;;;;;5.22;1.10;;;;;;;33.54;22.45;100845.91;1725290;82;20869;-91
2022/06/15 09:11:52;;;;;;;5.05;0.68;;;;;;;33.50;22.88;100845.27;1709308;82;20968;-90
2022/06/15 09:14:31;;;;;;;1.70;0.57;;;;;;;33.62;22.36;100844.22;1724871;83;21704;-91
2022/06/15 09:17:07;;;;;;;3.65;0.40;;;;;;;33.78;21.64;100846.72;1724525;82;21513;-90
2022/06/15 09:19:48;;;;;;;1.25;0.78;;;;;;;33.85;22.00;100848.77;1724097;83;21073;-90
2022/06/15 09:22:18;;;;;;;2.58;0.57;;;;;;;33.95;21.47;100835.91;1724409;83;20924;-89
2022/06/15 09:24:59;;;;;;;2.83;0.70;;;;;;;33.91;20.92;100843.45;1724703;83;21019;-90
2022/06/15 09:27:48;;;;;;;2.08;0.78;;;;;;;33.83;22.19;100845.99;1724845;83;21109;-90
2022/06/15 09:30:31;;;;;;;0.93;0.40;;;;;;;33.84;21.74;100846.30;1724619;83;20984;-89
2022/06/15 09:33:05;;;;;;;1.32;0.80;;;;;;;33.95;21.56;100844.08;1724516;83;20936;-89
2022/06/15 09:35:38;;;;;;;1.85;0.33;;;;;;;34.05;21.32;100840.17;1706999;84;20882;-90
2022/06/15 09:38:10;;;;;;;1.90;0.82;;;;;;;34.12;21.51;100840.60;1706719;84;21490;-90
2022/06/15 09:40:50;;;;;;;2.70;0.90;;;;;;;33.95;20.63;100837.78;1706528;84;21224;-88
2022/06/15 09:43:31;;;;;;;0.57;0.57;;;;;;;33.62;21.36;100838.78;1706388;84;20945;-89
2022/06/15 09:46:30;;;;;;;0.95;0.60;;;;;;;33.61;21.83;100834.93;1704307;83;20865;-89
2022/06/15 09:49:34;;;;;;;2.30;0.75;;;;;;;33.70;22.02;100839.47;1706766;84;20917;-88
2022/06/15 09:52:32;;;;;;;2.22;0.65;;;;;;;33.82;21.30;100839.73;1707158;84;20916;-87
2022/06/15 09:55:19;;;;;;;1.35;0.57;;;;;;;33.96;21.38;100831.29;1706751;83;21161;-89
2022/06/15 09:57:47;;;;;;;16.35;14.87;;;;;;;34.16;21.42;100839.05;1706491;84;20964;-89
2022/06/15 10:00:15;;;;;;;11.30;6.70;;;;;;;34.25;21.25;100834.31;1707020;83;21502;-90
2022/06/15 10:02:46;;;;;;;2.25;1.57;;;;;;;34.25;20.91;100833.50;1707149;84;20952;-89
2022/06/15 10:05:34;;;;;;;7.20;1.67;;;;;;;34.35;20.94;100835.05;1706967;84;20984;-91
2022/06/15 10:08:06;;;;;;;2.77;1.00;;;;;;;34.49;21.28;100836.11;1706748;84;21154;-90
2022/06/15 10:10:49;;;;;;;2.17;0.98;;;;;;;34.69;20.52;100831.57;1706805;83;20925;-91
2022/06/15 10:14:32;;;;;;;2.98;0.60;;;;;;;34.94;21.24;100836.05;1823358;77;23252;-91
2022/06/15 10:17:25;;;;;;;3.95;0.82;;;;;;;35.00;20.24;100831.52;1742745;78;21043;-89
2022/06/15 10:19:53;;;;;;;;;;;;;;;34.76;20.47;100832.22;1812362;78;21107;-90
2022/06/15 10:22:26;;;;;;;3.20;0.53;;;;;;;34.37;20.20;100836.97;1795736;78;20116;-89
2022/06/15 10:24:53;;;;;;;1.93;0.73;;;;;;;34.10;20.21;100832.64;1797628;78;20904;-91
2022/06/15 10:27:34;;;;;;;1.35;0.30;;;;;;;34.02;20.83;100824.34;1783992;78;21351;-89
2022/06/15 10:30:12;;;;;;;1.32;0.47;;;;;;;34.06;20.45;100822.79;1800214;78;20896;-88
2022/06/15 10:33:01;;;;;;;1.98;0.80;;;;;;;34.15;21.00;100829.22;1799463;78;21460;-88
2022/06/15 10:35:31;;;;;;;1.02;0.72;;;;;;;34.23;20.54;100820.13;1789694;78;20936;-88
2022/06/15 10:38:04;;;;;;;1.55;0.62;;;;;;;34.34;20.67;100817.05;1811434;78;21015;-90
2022/06/15 10:40:34;;;;;;;1.55;0.60;;;;;;;34.35;20.24;100816.50;1781984;78;20940;-89
2022/06/15 10:43:16;;;;;;;2.52;0.55;;;;;;;34.39;19.89;100815.77;1786581;78;20861;-92
2022/06/15 10:45:58;;;;;;;7.47;6.67;;;;;;;34.43;20.21;100808.77;1784854;78;21873;-89
2022/06/15 10:48:44;;;;;;;9.90;8.93;;;;;;;34.34;20.18;100810.78;1795842;78;20960;-89
2022/06/15 10:51:19;;;;;;;2.85;1.60;;;;;;;34.26;19.94;100802.46;1811133;78;21065;-90
2022/06/15 10:54:13;;;;;;;3.42;1.20;;;;;;;34.18;19.74;100805.61;1800151;78;20951;-89
2022/06/15 11:02:39;;;;;;;;;;;;;;;33.78;19.90;100795.56;1811948;78;20979;-91
2022/06/15 11:05:15;;;;;;;2.95;0.90;;;;;;;33.68;20.60;100793.99;1780639;78;20551;-91
2022/06/15 11:07:52;;;;;;;0.65;0.42;;;;;;;33.68;20.97;100792.63;1790152;78;21878;-88
2022/06/15 11:10:37;;;;;;;3.95;0.85;;;;;;;33.73;20.95;100794.08;1808482;78;20928;-90
2022/06/15 11:13:37;;;;;;;0.90;0.60;;;;;;;33.65;19.86;100794.77;1811014;78;21259;-88
2022/06/15 11:19:23;;;;;;;1.57;0.40;;;;;;;33.19;20.51;100791.58;1809187;78;21101;-89
2022/06/15 11:22:08;;;;;;;22.90;20.50;;;;;;;33.01;21.05;100787.07;1809178;78;21027;-91
2022/06/15 11:24:40;;;;;;;33.63;30.32;;;;;;;32.92;21.42;100789.85;1796139;78;21445;-89
2022/06/15 11:27:28;;;;;;;2.22;1.20;;;;;;;32.77;21.94;100795.23;1767055;78;21780;-89
2022/06/15 11:30:04;;;;;;;1.02;0.47;;;;;;;32.67;21.40;100787.37;1818859;78;21052;-88
2022/06/15 11:33:00;;;;;;;1.02;0.47;;;;;;;32.36;21.87;100781.14;1808160;78;20888;-89
2022/06/15 11:35:44;;;;;;;2.60;0.80;;;;;;;31.97;21.97;100786.92;1780059;78;20952;-88
2022/06/15 11:38:34;;;;;;;2.65;0.37;;;;;;;31.59;22.24;100781.73;1792385;78;20919;-92
2022/06/15 11:41:33;;;;;;;2.80;0.53;;;;;;;31.02;21.97;100780.58;1778001;78;21970;-91
2022/06/15 11:44:07;;;;;;;3.10;0.98;;;;;;;30.62;23.63;100780.91;1803276;78;20971;-91
2022/06/15 11:47:07;;;;;;;3.15;0.72;;;;;;;30.19;23.48;100776.17;1775938;78;21414;-91
2022/06/15 11:49:43;;;;;;;1.65;0.40;;;;;;;29.93;24.25;100778.53;1794055;78;21516;-92
2022/06/15 11:52:33;;;;;;;1.60;0.47;;;;;;;29.53;24.04;100773.27;1797109;78;20936;-89
2022/06/15 11:55:13;;;;;;;4.08;0.60;;;;;;;29.31;24.39;100775.41;1793295;78;21086;-86
2022/06/15 11:58:06;;;;;;;1.67;0.33;;;;;;;29.19;24.47;100773.03;1781883;78;21003;-91
2022/06/15 12:00:56;;;;;;;5.08;0.42;;;;;;;28.99;24.92;100771.69;1809587;78;20931;-89
2022/06/15 12:03:46;;;;;;;2.30;0.60;;;;;;;28.83;25.07;100782.40;1804405;78;20963;-91
2022/06/15 12:06:28;;;;;;;2.98;1.00;;;;;;;28.62;25.28;100777.53;1796984;78;20966;-90
2022/06/15 12:09:11;;;;;;;2.17;0.50;;;;;;;28.43;25.57;100778.31;1790227;78;21813;-91
2022/06/15 12:14:50;;;;;;;1.85;1.27;;;;;;;28.19;25.16;100777.02;1775417;78;20097;-92
2022/06/15 12:17:25;;;;;;;4.15;3.30;;;;;;;28.06;25.57;100775.15;1792014;78;20963;-89
2022/06/15 12:20:21;;;;;;;1.75;1.52;;;;;;;27.93;26.16;100773.77;1794409;78;20928;-90